createdAt,value
2018-10-18T00:02:05.503Z,55.70
2018-10-18T00:04:34.662Z,55.70
2018-10-18T00:07:04.180Z,55.70
2018-10-18T00:09:33.444Z,55.70
2018-10-18T00:12:02.797Z,55.70
2018-10-18T00:14:31.974Z,55.60
2018-10-18T00:17:01.238Z,55.70
2018-10-18T00:19:30.498Z,55.70
2018-10-18T00:21:59.639Z,55.70
2018-10-18T00:24:28.996Z,55.70
2018-10-18T00:26:58.247Z,55.60
2018-10-18T00:29:27.626Z,55.60
2018-10-18T00:31:57.036Z,55.60
2018-10-18T00:34:26.394Z,55.60
2018-10-18T00:36:55.665Z,55.50
2018-10-18T00:39:24.872Z,55.50
2018-10-18T00:41:54.047Z,55.50
2018-10-18T00:44:23.204Z,55.50
2018-10-18T00:46:52.303Z,55.40
2018-10-18T00:49:21.432Z,56.00
2018-10-18T00:51:50.623Z,55.50
2018-10-18T00:54:19.694Z,55.40
2018-10-18T00:56:49.031Z,55.40
2018-10-18T00:59:18.306Z,55.40
2018-10-18T01:01:47.528Z,55.40
2018-10-18T01:04:16.727Z,55.40
2018-10-18T01:06:45.793Z,55.40
2018-10-18T01:09:15.044Z,55.40
2018-10-18T01:11:44.101Z,55.50
2018-10-18T01:14:13.154Z,55.40
2018-10-18T01:16:42.328Z,55.40
2018-10-18T01:19:11.372Z,55.40
2018-10-18T01:21:40.603Z,55.30
2018-10-18T01:24:09.795Z,55.40
2018-10-18T01:26:38.917Z,55.30
2018-10-18T01:29:08.027Z,55.30
2018-10-18T01:31:37.216Z,55.30
2018-10-18T01:34:06.421Z,55.30
2018-10-18T01:36:35.573Z,55.30
2018-10-18T01:39:05.305Z,55.30
2018-10-18T01:41:34.550Z,55.30
2018-10-18T01:44:03.926Z,55.30
2018-10-18T01:46:33.077Z,55.30
2018-10-18T01:49:02.148Z,55.90
2018-10-18T01:51:31.311Z,55.20
2018-10-18T01:54:00.744Z,55.20
2018-10-18T01:56:30.073Z,55.20
2018-10-18T01:58:59.636Z,55.20
2018-10-18T02:01:29.298Z,55.20
2018-10-18T02:03:58.610Z,55.20
2018-10-18T02:06:27.937Z,55.20
2018-10-18T02:08:57.305Z,55.20
2018-10-18T02:11:26.277Z,55.20
2018-10-18T02:13:55.375Z,55.20
2018-10-18T02:16:24.591Z,55.10
2018-10-18T02:18:53.930Z,55.20
2018-10-18T02:21:23.029Z,55.20
2018-10-18T02:23:52.117Z,55.20
2018-10-18T02:26:22.068Z,55.20
2018-10-18T02:28:51.056Z,55.20
2018-10-18T02:31:19.968Z,55.20
2018-10-18T02:33:49.001Z,55.20
2018-10-18T02:36:18.164Z,55.20
2018-10-18T02:38:47.452Z,55.10
2018-10-18T02:41:16.509Z,55.00
2018-10-18T02:43:45.620Z,55.20
2018-10-18T02:46:14.901Z,55.10
2018-10-18T02:48:43.941Z,55.10
2018-10-18T02:51:12.918Z,55.10
2018-10-18T02:53:42.065Z,55.10
2018-10-18T02:56:11.161Z,55.10
2018-10-18T02:58:40.396Z,55.00
2018-10-18T03:01:09.583Z,55.00
2018-10-18T03:03:38.654Z,55.00
2018-10-18T03:06:07.560Z,55.00
2018-10-18T03:08:36.482Z,55.10
2018-10-18T03:11:06.272Z,55.10
2018-10-18T03:13:35.313Z,55.00
2018-10-18T03:16:04.405Z,55.00
2018-10-18T03:18:33.504Z,55.00
2018-10-18T03:21:02.583Z,55.00
2018-10-18T03:23:31.659Z,55.00
2018-10-18T03:26:00.903Z,55.00
2018-10-18T03:28:30.003Z,54.90
2018-10-18T03:30:59.212Z,55.00
2018-10-18T03:33:28.275Z,54.90
2018-10-18T03:35:57.386Z,55.00
2018-10-18T03:38:26.592Z,54.90
2018-10-18T03:40:55.575Z,55.40
2018-10-18T03:43:24.835Z,54.90
2018-10-18T03:45:54.124Z,54.90
2018-10-18T03:48:23.369Z,54.90
2018-10-18T03:50:52.476Z,54.90
2018-10-18T03:53:21.480Z,54.90
2018-10-18T03:55:50.715Z,55.30
2018-10-18T03:58:19.726Z,54.90
2018-10-18T04:00:48.739Z,54.90
2018-10-18T04:03:17.969Z,54.90
2018-10-18T04:05:47.159Z,54.90
2018-10-18T04:08:16.512Z,54.90
2018-10-18T04:10:45.650Z,54.80
2018-10-18T04:13:14.923Z,54.80
2018-10-18T04:15:44.060Z,54.80
2018-10-18T04:18:13.279Z,54.80
2018-10-18T04:20:42.363Z,54.90
2018-10-18T04:23:11.727Z,54.80
2018-10-18T04:25:40.917Z,55.40
2018-10-18T04:28:10.018Z,54.80
2018-10-18T04:30:39.136Z,54.80
2018-10-18T04:33:08.253Z,54.80
2018-10-18T04:35:37.431Z,54.80
2018-10-18T04:38:06.657Z,54.80
2018-10-18T04:40:35.835Z,54.80
2018-10-18T04:43:06.015Z,54.80
2018-10-18T04:45:35.272Z,54.80
2018-10-18T04:48:04.616Z,54.80
2018-10-18T04:50:33.913Z,54.80
2018-10-18T04:53:02.967Z,54.80
2018-10-18T04:55:32.152Z,54.70
2018-10-18T04:58:01.343Z,54.80
2018-10-18T05:00:30.625Z,54.80
2018-10-18T05:02:59.726Z,54.80
2018-10-18T05:05:40.053Z,54.70
2018-10-18T05:08:09.358Z,54.70
2018-10-18T05:10:38.495Z,54.70
2018-10-18T05:13:07.725Z,54.70
2018-10-18T05:15:36.793Z,55.10
2018-10-18T05:18:06.073Z,54.70
2018-10-18T05:20:35.364Z,54.70
2018-10-18T05:23:04.553Z,54.70
2018-10-18T05:25:34.078Z,54.70
2018-10-18T05:28:03.708Z,54.70
2018-10-18T05:30:32.907Z,54.70
2018-10-18T05:33:02.134Z,55.30
2018-10-18T05:35:31.314Z,55.20
2018-10-18T05:38:00.407Z,54.70
2018-10-18T05:40:29.588Z,54.70
2018-10-18T05:42:58.667Z,54.70
2018-10-18T05:45:27.925Z,54.70
2018-10-18T05:47:56.983Z,54.70
2018-10-18T05:50:26.179Z,54.70
2018-10-18T05:52:55.195Z,54.60
2018-10-18T05:55:24.375Z,54.60
2018-10-18T05:57:53.516Z,54.60
2018-10-18T06:00:22.882Z,55.00
2018-10-18T06:02:52.003Z,54.60
2018-10-18T06:05:21.072Z,54.60
2018-10-18T06:07:50.389Z,54.50
2018-10-18T06:10:30.748Z,54.50
2018-10-18T06:12:59.781Z,54.50
2018-10-18T06:15:28.992Z,54.50
2018-10-18T06:17:58.157Z,54.50
2018-10-18T06:20:27.307Z,54.30
2018-10-18T06:22:56.476Z,54.40
2018-10-18T06:25:25.512Z,54.70
2018-10-18T06:27:54.664Z,54.40
2018-10-18T06:30:23.687Z,54.40
2018-10-18T06:32:52.731Z,54.40
2018-10-18T06:35:21.963Z,54.40
2018-10-18T06:37:50.996Z,54.40
2018-10-18T06:40:19.997Z,54.40
2018-10-18T06:42:49.280Z,54.40
2018-10-18T06:45:19.237Z,54.40
2018-10-18T06:47:48.921Z,54.80
2018-10-18T06:50:19.196Z,54.40
2018-10-18T06:52:48.594Z,54.50
2018-10-18T06:55:17.988Z,54.40
2018-10-18T06:57:47.134Z,54.30
2018-10-18T07:00:20.854Z,54.40
2018-10-18T07:02:50.531Z,54.40
2018-10-18T07:05:19.591Z,54.30
2018-10-18T07:07:48.749Z,54.20
2018-10-18T07:10:17.948Z,54.20
2018-10-18T07:12:47.132Z,54.20
2018-10-18T07:15:16.527Z,54.20
2018-10-18T07:17:45.736Z,54.20
2018-10-18T07:20:15.514Z,54.20
2018-10-18T07:22:44.622Z,54.10
2018-10-18T07:25:15.031Z,54.10
2018-10-18T07:27:44.434Z,54.10
2018-10-18T07:30:14.757Z,54.10
2018-10-18T07:32:44.128Z,54.10
2018-10-18T07:35:14.348Z,54.10
2018-10-18T07:37:43.508Z,54.00
2018-10-18T07:40:14.303Z,54.00
2018-10-18T07:42:43.601Z,53.90
2018-10-18T07:45:13.637Z,53.90
2018-10-18T07:47:43.289Z,53.90
2018-10-18T07:50:12.986Z,53.90
2018-10-18T07:52:42.192Z,53.90
2018-10-18T07:55:11.648Z,53.90
2018-10-18T07:57:40.920Z,54.40
2018-10-18T08:00:12.256Z,53.90
2018-10-18T08:02:42.007Z,53.80
2018-10-18T08:05:11.774Z,53.80
2018-10-18T08:07:41.038Z,53.80
2018-10-18T08:10:13.701Z,54.40
2018-10-18T08:12:43.060Z,53.80
2018-10-18T08:15:13.368Z,53.70
2018-10-18T08:17:43.100Z,53.70
2018-10-18T08:20:13.150Z,53.70
2018-10-18T08:22:42.976Z,53.60
2018-10-18T08:25:12.010Z,53.50
2018-10-18T08:27:41.035Z,53.60
2018-10-18T08:30:11.653Z,53.50
2018-10-18T08:32:41.078Z,53.40
2018-10-18T08:35:11.005Z,53.90
2018-10-18T08:37:40.299Z,53.30
2018-10-18T08:40:09.593Z,53.10
2018-10-18T08:42:39.847Z,52.90
2018-10-18T08:45:10.261Z,52.90
2018-10-18T08:47:39.898Z,53.40
2018-10-18T08:50:10.453Z,52.90
2018-10-18T08:52:39.698Z,52.70
2018-10-18T08:55:10.906Z,52.80
2018-10-18T08:57:40.057Z,52.90
2018-10-18T09:00:10.195Z,52.90
2018-10-18T09:02:39.655Z,53.00
2018-10-18T09:05:09.013Z,52.90
2018-10-18T09:07:38.533Z,52.90
2018-10-18T09:10:08.336Z,52.90
2018-10-18T09:12:37.641Z,52.50
2018-10-18T09:15:07.843Z,52.50
2018-10-18T09:17:37.346Z,52.60
2018-10-18T09:20:06.580Z,52.40
2018-10-18T09:22:35.954Z,52.50
2018-10-18T09:25:05.379Z,53.10
2018-10-18T09:27:34.576Z,52.50
2018-10-18T09:30:03.834Z,52.40
2018-10-18T09:32:33.248Z,52.70
2018-10-18T09:35:02.461Z,52.70
2018-10-18T09:37:31.645Z,52.80
2018-10-18T09:40:00.897Z,52.70
2018-10-18T09:42:30.161Z,52.50
2018-10-18T09:44:59.565Z,52.70
2018-10-18T09:47:28.609Z,52.80
2018-10-18T09:49:57.792Z,53.00
2018-10-18T09:52:26.776Z,53.00
2018-10-18T09:54:56.143Z,52.80
2018-10-18T09:57:25.422Z,52.90
2018-10-18T09:59:54.596Z,52.90
2018-10-18T10:02:28.847Z,53.00
2018-10-18T10:04:58.165Z,52.80
2018-10-18T10:07:27.432Z,52.90
2018-10-18T10:09:56.748Z,53.00
2018-10-18T10:12:25.901Z,53.00
2018-10-18T10:14:55.209Z,52.90
2018-10-18T10:17:24.450Z,52.90
2018-10-18T10:19:53.676Z,52.90
2018-10-18T10:22:22.961Z,53.00
2018-10-18T10:24:52.165Z,53.00
2018-10-18T10:27:21.245Z,53.10
2018-10-18T10:29:50.445Z,53.00
2018-10-18T10:32:19.708Z,53.10
2018-10-18T10:34:48.898Z,53.10
2018-10-18T10:37:18.020Z,53.10
2018-10-18T10:39:47.331Z,53.20
2018-10-18T10:42:16.528Z,53.30
2018-10-18T10:44:45.678Z,53.20
2018-10-18T10:47:14.760Z,53.20
2018-10-18T10:49:43.856Z,53.40
2018-10-18T10:52:13.130Z,53.20
2018-10-18T10:54:42.407Z,53.20
2018-10-18T10:57:11.608Z,53.80
2018-10-18T10:59:40.900Z,53.00
2018-10-18T11:02:10.023Z,53.00
2018-10-18T11:04:39.372Z,52.90
2018-10-18T11:07:08.675Z,52.90
2018-10-18T11:09:37.864Z,52.90
2018-10-18T11:12:07.161Z,52.80
2018-10-18T11:14:36.279Z,52.90
2018-10-18T11:17:05.813Z,52.90
2018-10-18T11:19:35.345Z,52.90
2018-10-18T11:22:04.908Z,52.80
2018-10-18T11:24:34.172Z,52.90
2018-10-18T11:27:03.676Z,53.00
2018-10-18T11:29:32.838Z,53.70
2018-10-18T11:32:02.122Z,53.10
2018-10-18T11:34:31.417Z,53.00
2018-10-18T11:37:00.589Z,53.40
2018-10-18T11:39:29.851Z,53.10
2018-10-18T11:41:58.904Z,53.10
2018-10-18T11:44:33.190Z,53.10
2018-10-18T11:47:02.461Z,53.10
2018-10-18T11:49:31.773Z,53.10
2018-10-18T11:52:00.952Z,53.10
2018-10-18T11:54:30.140Z,53.20
2018-10-18T11:56:59.341Z,53.20
2018-10-18T11:59:28.633Z,53.10
2018-10-18T12:01:57.949Z,53.10
2018-10-18T12:04:27.171Z,53.10
2018-10-18T12:06:56.424Z,53.10
2018-10-18T12:09:25.809Z,53.20
2018-10-18T12:11:55.531Z,53.20
2018-10-18T12:14:24.972Z,53.20
2018-10-18T12:16:54.315Z,53.20
2018-10-18T12:19:23.588Z,53.10
2018-10-18T12:21:52.932Z,53.80
2018-10-18T12:24:22.376Z,53.20
2018-10-18T12:26:51.971Z,53.30
2018-10-18T12:29:21.392Z,53.20
2018-10-18T12:31:50.781Z,53.30
2018-10-18T12:34:20.141Z,53.30
2018-10-18T12:36:49.689Z,53.20
2018-10-18T12:39:18.882Z,53.30
2018-10-18T12:41:48.480Z,53.30
2018-10-18T12:44:17.967Z,53.30
2018-10-18T12:46:47.243Z,53.30
2018-10-18T12:49:16.657Z,53.30
2018-10-18T12:51:46.104Z,53.30
2018-10-18T12:54:15.622Z,53.40
2018-10-18T12:56:44.802Z,53.50
2018-10-18T12:59:14.286Z,53.40
2018-10-18T13:01:43.739Z,53.50
2018-10-18T13:04:13.004Z,53.40
2018-10-18T13:06:42.293Z,53.40
2018-10-18T13:09:11.753Z,53.40
2018-10-18T13:11:41.090Z,53.40
2018-10-18T13:14:10.921Z,53.40
2018-10-18T13:16:40.333Z,53.40
2018-10-18T13:19:10.131Z,53.60
2018-10-18T13:21:39.994Z,53.40
2018-10-18T13:24:09.862Z,53.40
2018-10-18T13:26:39.394Z,53.30
2018-10-18T13:29:09.813Z,53.40
2018-10-18T13:31:39.020Z,53.30
2018-10-18T13:34:08.705Z,53.30
2018-10-18T13:36:37.958Z,53.30
2018-10-18T13:39:10.034Z,53.30
2018-10-18T13:41:39.893Z,53.30
2018-10-18T13:44:09.577Z,53.30
2018-10-18T13:46:39.833Z,53.20
2018-10-18T13:49:09.789Z,53.20
2018-10-18T13:51:39.385Z,53.30
2018-10-18T13:54:09.009Z,53.30
2018-10-18T13:56:38.393Z,53.30
2018-10-18T13:59:17.867Z,53.20
2018-10-18T14:01:47.332Z,53.20
2018-10-18T14:04:16.614Z,53.40
2018-10-18T14:06:46.204Z,53.40
2018-10-18T14:09:15.645Z,53.30
2018-10-18T14:11:44.988Z,53.30
2018-10-18T14:14:14.418Z,53.30
2018-10-18T14:16:43.622Z,53.30
2018-10-18T14:19:12.949Z,53.30
2018-10-18T14:21:42.192Z,53.30
2018-10-18T14:24:11.789Z,53.30
2018-10-18T14:26:41.127Z,53.30
2018-10-18T14:29:10.839Z,53.30
2018-10-18T14:31:42.401Z,53.30
2018-10-18T14:34:11.459Z,53.30
2018-10-18T14:36:40.779Z,53.30
2018-10-18T14:39:11.000Z,53.30
2018-10-18T14:41:42.684Z,53.30
2018-10-18T14:44:12.925Z,53.30
2018-10-18T14:46:42.804Z,53.30
2018-10-18T14:49:12.663Z,53.30
2018-10-18T14:51:43.430Z,53.20
2018-10-18T14:54:13.085Z,53.40
2018-10-18T14:56:42.485Z,53.30
2018-10-18T14:59:11.998Z,53.30
2018-10-18T15:01:41.554Z,53.40
2018-10-18T15:04:11.515Z,53.40
2018-10-18T15:06:42.745Z,53.30
2018-10-18T15:09:13.249Z,53.30
2018-10-18T15:11:42.213Z,53.30
2018-10-18T15:14:11.985Z,53.30
2018-10-18T15:16:41.758Z,53.40
2018-10-18T15:19:12.862Z,53.30
2018-10-18T15:21:42.580Z,53.40
2018-10-18T15:24:12.882Z,53.40
2018-10-18T15:26:44.981Z,53.40
2018-10-18T15:29:14.484Z,53.30
2018-10-18T15:31:45.149Z,53.40
2018-10-18T15:34:14.510Z,53.40
2018-10-18T15:36:44.173Z,53.40
2018-10-18T15:39:15.223Z,53.40
2018-10-18T15:41:44.595Z,53.40
2018-10-18T15:44:13.843Z,53.40
2018-10-18T15:46:43.195Z,53.40
2018-10-18T15:49:15.691Z,53.40
2018-10-18T15:51:47.247Z,53.70
2018-10-18T15:54:17.384Z,53.40
2018-10-18T15:56:52.864Z,53.40
2018-10-18T15:59:43.289Z,53.50
2018-10-18T16:02:14.917Z,53.40
2018-10-18T16:04:44.352Z,54.10
2018-10-18T16:07:14.058Z,53.40
2018-10-18T16:09:43.708Z,53.40
2018-10-18T16:12:13.125Z,53.50
2018-10-18T16:14:42.645Z,53.50
2018-10-18T16:17:12.294Z,53.50
2018-10-18T16:19:43.254Z,53.50
2018-10-18T16:22:13.196Z,53.50
2018-10-18T16:24:42.595Z,53.50
2018-10-18T16:27:12.133Z,53.50
2018-10-18T16:29:41.663Z,53.50
2018-10-18T16:32:11.944Z,53.50
2018-10-18T16:34:44.404Z,53.50
2018-10-18T16:37:14.057Z,53.60
2018-10-18T16:39:44.407Z,53.60
2018-10-18T16:42:14.197Z,53.60
2018-10-18T16:44:44.417Z,53.60
2018-10-18T16:47:14.793Z,53.50
2018-10-18T16:49:44.790Z,53.50
2018-10-18T16:52:15.160Z,53.50
2018-10-18T16:54:45.303Z,53.60
2018-10-18T16:57:14.887Z,53.60
2018-10-18T16:59:45.036Z,53.60
2018-10-18T17:02:15.265Z,53.60
2018-10-18T17:04:45.055Z,53.60
2018-10-18T17:07:16.013Z,53.60
2018-10-18T17:09:45.653Z,53.60
2018-10-18T17:12:15.700Z,53.60
2018-10-18T17:14:45.153Z,53.60
2018-10-18T17:17:14.664Z,53.60
2018-10-18T17:19:43.859Z,53.60
2018-10-18T17:22:13.449Z,53.60
2018-10-18T17:24:43.050Z,53.70
2018-10-18T17:27:12.550Z,53.60
2018-10-18T17:29:42.100Z,53.60
2018-10-18T17:32:12.235Z,53.60
2018-10-18T17:34:43.185Z,53.60
2018-10-18T17:37:13.157Z,53.60
2018-10-18T17:39:42.252Z,53.70
2018-10-18T17:42:12.056Z,53.70
2018-10-18T17:44:41.588Z,53.60
2018-10-18T17:47:12.165Z,53.60
2018-10-18T17:49:42.113Z,53.60
2018-10-18T17:55:08.387Z,53.60
2018-10-18T17:57:41.885Z,53.70
2018-10-18T18:00:13.862Z,53.60
2018-10-18T18:02:44.077Z,53.70
2018-10-18T18:05:15.038Z,53.60
2018-10-18T18:07:44.697Z,53.70
2018-10-18T18:10:16.441Z,53.70
2018-10-18T18:12:45.739Z,53.70
2018-10-18T18:15:15.377Z,53.70
2018-10-18T18:17:45.190Z,53.70
2018-10-18T18:20:35.276Z,53.70
2018-10-18T18:23:04.721Z,53.70
2018-10-18T18:25:34.580Z,53.70
2018-10-18T18:28:04.431Z,53.70
2018-10-18T18:30:34.514Z,53.70
2018-10-18T18:33:04.432Z,53.70
2018-10-18T18:35:34.307Z,53.70
2018-10-18T18:38:04.818Z,53.80
2018-10-18T18:40:34.925Z,53.70
2018-10-18T18:43:04.051Z,53.80
2018-10-18T18:45:34.202Z,53.80
2018-10-18T18:48:04.534Z,53.80
2018-10-18T18:50:34.300Z,53.80
2018-10-18T18:53:04.553Z,53.80
2018-10-18T18:55:34.362Z,53.80
2018-10-18T18:58:04.135Z,53.80
2018-10-18T19:00:34.497Z,53.80
2018-10-18T19:03:04.598Z,53.80
2018-10-18T19:05:34.251Z,53.80
2018-10-18T19:08:05.337Z,53.80
2018-10-18T19:10:34.938Z,53.80
2018-10-18T19:13:05.606Z,53.80
2018-10-18T19:15:35.185Z,53.80
2018-10-18T19:18:05.756Z,53.70
2018-10-18T19:20:36.460Z,53.80
2018-10-18T19:23:06.567Z,53.80
2018-10-18T19:25:36.881Z,53.80
2018-10-18T19:28:07.282Z,53.70
2018-10-18T19:30:37.468Z,53.80
2018-10-18T19:33:08.009Z,53.70
2018-10-18T19:35:38.500Z,53.80
2018-10-18T19:38:08.552Z,53.70
2018-10-18T19:40:44.442Z,53.80
2018-10-18T19:43:14.948Z,53.70
2018-10-18T19:45:44.976Z,53.80
2018-10-18T19:48:15.745Z,53.70
2018-10-18T19:50:46.569Z,53.80
2018-10-18T19:53:16.292Z,53.70
2018-10-18T19:55:47.058Z,53.70
2018-10-18T19:58:17.076Z,53.80
2018-10-18T20:00:47.195Z,53.70
2018-10-18T20:03:16.492Z,53.70
2018-10-18T20:05:47.452Z,53.70
2018-10-18T20:08:17.927Z,53.70
2018-10-18T20:10:48.288Z,53.70
2018-10-18T20:13:18.233Z,53.70
2018-10-18T20:15:49.209Z,53.70
2018-10-18T20:18:19.020Z,54.20
2018-10-18T20:20:50.001Z,53.70
2018-10-18T20:23:19.989Z,53.80
2018-10-18T20:25:50.286Z,53.70
2018-10-18T20:28:20.114Z,53.70
2018-10-18T20:30:50.894Z,53.80
2018-10-18T20:33:20.876Z,53.80
2018-10-18T20:35:50.993Z,53.70
2018-10-18T20:38:20.596Z,53.70
2018-10-18T20:40:49.996Z,53.80
2018-10-18T20:43:19.805Z,53.70
2018-10-18T20:45:49.604Z,53.80
2018-10-18T20:48:19.246Z,53.80
2018-10-18T20:50:49.161Z,53.80
2018-10-18T20:53:18.944Z,53.80
2018-10-18T20:55:53.199Z,53.80
2018-10-18T20:58:23.502Z,53.80
2018-10-18T21:00:53.209Z,53.80
2018-10-18T21:03:22.903Z,53.80
2018-10-18T21:05:52.465Z,53.80
2018-10-18T21:08:22.062Z,53.80
2018-10-18T21:10:52.817Z,53.80
2018-10-18T21:13:22.493Z,53.80
2018-10-18T21:15:52.883Z,53.80
2018-10-18T21:18:22.556Z,53.80
2018-10-18T21:20:52.117Z,53.90
2018-10-18T21:23:21.740Z,53.80
2018-10-18T21:25:51.507Z,54.40
2018-10-18T21:28:21.040Z,53.80
2018-10-18T21:30:50.801Z,53.80
2018-10-18T21:33:20.993Z,53.80
2018-10-18T21:35:50.604Z,53.80
2018-10-18T21:38:20.055Z,53.80
2018-10-18T21:40:49.665Z,53.80
2018-10-18T21:43:19.349Z,53.80
2018-10-18T21:45:49.256Z,53.80
2018-10-18T21:48:19.506Z,53.80
2018-10-18T21:50:48.908Z,53.80
2018-10-18T21:53:18.585Z,53.80
2018-10-18T21:55:48.145Z,53.80
2018-10-18T21:58:18.060Z,53.80
2018-10-18T22:00:47.453Z,53.80
2018-10-18T22:03:16.997Z,53.80
2018-10-18T22:05:46.748Z,53.80
2018-10-18T22:08:16.400Z,53.80
2018-10-18T22:10:46.112Z,53.80
2018-10-18T22:13:15.753Z,53.80
2018-10-18T22:15:45.435Z,53.80
2018-10-18T22:18:15.094Z,53.80
2018-10-18T22:20:44.704Z,53.80
2018-10-18T22:23:14.455Z,53.80
2018-10-18T22:25:44.177Z,53.80
2018-10-18T22:28:13.745Z,53.80
2018-10-18T22:30:43.492Z,53.80
2018-10-18T22:33:13.305Z,53.80
2018-10-18T22:35:42.907Z,54.40
2018-10-18T22:38:12.498Z,53.80
2018-10-18T22:40:41.903Z,53.80
2018-10-18T22:43:11.318Z,53.80
2018-10-18T22:45:43.065Z,53.70
2018-10-18T22:48:13.216Z,53.80
2018-10-18T22:50:43.044Z,53.80
2018-10-18T22:53:12.729Z,53.80
2018-10-18T22:55:42.085Z,53.80
2018-10-18T22:58:11.568Z,53.80
2018-10-18T23:00:44.068Z,53.80
2018-10-18T23:03:14.177Z,53.80
2018-10-18T23:05:43.680Z,53.80
2018-10-18T23:08:13.345Z,53.80
2018-10-18T23:10:42.895Z,53.80
2018-10-18T23:13:12.244Z,53.80
2018-10-18T23:15:41.756Z,53.80
2018-10-18T23:18:12.068Z,53.70
2018-10-18T23:20:41.891Z,53.80
2018-10-18T23:23:11.940Z,53.80
2018-10-18T23:25:41.592Z,53.80
2018-10-18T23:28:11.314Z,53.70
2018-10-18T23:30:40.807Z,53.80
2018-10-18T23:33:10.321Z,53.90
2018-10-18T23:35:39.888Z,53.80
2018-10-18T23:38:09.444Z,53.80
2018-10-18T23:40:38.819Z,53.80
2018-10-18T23:43:08.207Z,53.80
2018-10-18T23:45:37.612Z,53.80
2018-10-18T23:48:07.350Z,53.80
2018-10-18T23:50:36.716Z,53.80
2018-10-18T23:53:06.287Z,53.80
2018-10-18T23:55:35.514Z,53.80
2018-10-18T23:58:04.944Z,53.80
